createdAt,value
2019-02-22T00:00:53.685Z,7.60
2019-02-22T00:03:22.429Z,7.70
2019-02-22T00:05:51.193Z,7.70
2019-02-22T00:08:20.032Z,7.70
2019-02-22T00:10:48.857Z,7.70
2019-02-22T00:13:17.606Z,7.70
2019-02-22T00:15:46.443Z,7.80
2019-02-22T00:18:15.198Z,7.80
2019-02-22T00:20:43.934Z,7.80
2019-02-22T00:23:12.715Z,7.80
2019-02-22T00:25:41.552Z,7.80
2019-02-22T00:28:10.388Z,7.80
2019-02-22T00:30:39.131Z,7.80
2019-02-22T00:33:07.957Z,7.70
2019-02-22T00:35:36.706Z,7.60
2019-02-22T00:38:05.836Z,7.60
2019-02-22T00:40:34.578Z,7.50
2019-02-22T00:43:03.352Z,7.40
2019-02-22T00:45:32.162Z,7.40
2019-02-22T00:48:01.086Z,7.40
2019-02-22T00:50:29.837Z,7.50
2019-02-22T00:52:58.665Z,7.40
2019-02-22T00:55:27.397Z,7.50
2019-02-22T00:57:56.237Z,7.50
2019-02-22T01:00:24.978Z,7.50
2019-02-22T01:02:53.716Z,7.50
2019-02-22T01:05:22.481Z,7.40
2019-02-22T01:07:51.218Z,7.40
2019-02-22T01:10:30.417Z,7.40
2019-02-22T01:12:50.374Z,7.40
2019-02-22T01:15:19.142Z,7.40
2019-02-22T01:17:48.066Z,7.30
2019-02-22T01:20:16.834Z,7.30
2019-02-22T01:22:45.641Z,7.30
2019-02-22T01:25:14.410Z,7.30
2019-02-22T01:27:43.158Z,7.40
2019-02-22T01:30:12.021Z,7.40
2019-02-22T01:32:40.802Z,7.30
2019-02-22T01:35:09.568Z,7.30
2019-02-22T01:37:38.314Z,7.30
2019-02-22T01:40:09.690Z,7.30
2019-02-22T01:42:38.457Z,7.40
2019-02-22T01:45:07.897Z,7.40
2019-02-22T01:47:36.646Z,7.40
2019-02-22T01:50:06.658Z,7.40
2019-02-22T01:52:35.425Z,7.40
2019-02-22T01:55:04.302Z,7.40
2019-02-22T01:57:33.196Z,7.50
2019-02-22T02:00:01.974Z,7.50
2019-02-22T02:02:31.853Z,7.50
2019-02-22T02:05:02.520Z,7.40
2019-02-22T02:07:31.003Z,7.40
2019-02-22T02:09:59.802Z,7.40
2019-02-22T02:12:28.574Z,7.40
2019-02-22T02:14:57.305Z,7.40
2019-02-22T02:17:26.078Z,7.50
2019-02-22T02:19:54.896Z,7.40
2019-02-22T02:22:23.641Z,7.40
2019-02-22T02:24:52.519Z,7.40
2019-02-22T02:27:21.290Z,7.40
2019-02-22T02:29:50.054Z,7.40
2019-02-22T02:32:18.777Z,7.40
2019-02-22T02:34:47.546Z,7.40
2019-02-22T02:37:16.295Z,7.50
2019-02-22T02:39:45.066Z,7.50
2019-02-22T02:42:13.860Z,7.40
2019-02-22T02:44:42.902Z,7.50
2019-02-22T02:47:11.678Z,7.50
2019-02-22T02:49:40.502Z,7.60
2019-02-22T02:52:09.245Z,7.50
2019-02-22T02:54:38.012Z,7.50
2019-02-22T02:57:06.822Z,7.50
2019-02-22T02:59:35.646Z,7.50
2019-02-22T03:02:06.051Z,7.60
2019-02-22T03:04:34.789Z,7.60
2019-02-22T03:07:05.189Z,7.60
2019-02-22T03:09:33.920Z,7.50
2019-02-22T03:12:02.707Z,7.50
2019-02-22T03:14:31.429Z,7.50
2019-02-22T03:17:00.200Z,7.50
2019-02-22T03:19:28.933Z,7.50
2019-02-22T03:21:57.700Z,7.50
2019-02-22T03:24:26.443Z,7.50
2019-02-22T03:26:55.208Z,7.50
2019-02-22T03:29:23.941Z,7.50
2019-02-22T03:31:52.705Z,7.40
2019-02-22T03:34:21.458Z,7.30
2019-02-22T03:36:50.244Z,7.30
2019-02-22T03:39:18.993Z,7.20
2019-02-22T03:41:47.744Z,7.20
2019-02-22T03:44:16.492Z,7.20
2019-02-22T03:46:45.237Z,7.20
2019-02-22T03:49:14.001Z,7.20
2019-02-22T03:51:42.736Z,7.10
2019-02-22T03:54:11.572Z,7.10
2019-02-22T03:56:40.310Z,7.10
2019-02-22T03:59:09.209Z,7.20
2019-02-22T04:01:38.025Z,7.10
2019-02-22T04:04:06.729Z,7.10
2019-02-22T04:06:35.478Z,7.10
2019-02-22T04:09:05.721Z,7.10
2019-02-22T04:11:44.969Z,7.00
2019-02-22T04:14:04.954Z,7.00
2019-02-22T04:16:33.706Z,7.00
2019-02-22T04:19:02.451Z,7.00
2019-02-22T04:21:31.279Z,7.00
2019-02-22T04:24:00.010Z,7.10
2019-02-22T04:26:28.855Z,7.00
2019-02-22T04:28:57.589Z,7.00
2019-02-22T04:31:26.352Z,7.00
2019-02-22T04:33:55.091Z,7.00
2019-02-22T04:36:23.875Z,7.00
2019-02-22T04:38:52.732Z,7.00
2019-02-22T04:41:21.490Z,7.00
2019-02-22T04:43:50.210Z,7.00
2019-02-22T04:46:18.973Z,7.00
2019-02-22T04:48:47.796Z,7.00
2019-02-22T04:51:16.560Z,7.00
2019-02-22T04:53:45.721Z,7.00
2019-02-22T04:56:14.490Z,7.00
2019-02-22T04:58:43.296Z,7.00
2019-02-22T05:01:12.101Z,7.00
2019-02-22T05:03:40.978Z,7.00
2019-02-22T05:06:09.715Z,7.00
2019-02-22T05:08:38.483Z,6.90
2019-02-22T05:11:07.254Z,6.90
2019-02-22T05:13:36.229Z,6.90
2019-02-22T05:16:04.969Z,6.90
2019-02-22T05:18:35.736Z,7.00
2019-02-22T05:21:04.186Z,7.00
2019-02-22T05:23:32.951Z,7.00
2019-02-22T05:26:01.690Z,6.90
2019-02-22T05:28:30.457Z,6.90
2019-02-22T05:30:59.261Z,7.00
2019-02-22T05:33:28.069Z,7.00
2019-02-22T05:35:56.858Z,7.00
2019-02-22T05:38:25.697Z,7.00
2019-02-22T05:40:55.583Z,7.00
2019-02-22T05:43:24.418Z,7.00
2019-02-22T05:45:53.250Z,7.00
2019-02-22T05:48:21.991Z,7.00
2019-02-22T05:50:51.096Z,7.00
2019-02-22T05:53:19.952Z,6.90
2019-02-22T05:55:48.730Z,6.90
2019-02-22T05:58:17.468Z,6.90
2019-02-22T06:00:46.236Z,6.90
2019-02-22T06:03:14.992Z,6.90
2019-02-22T06:05:43.734Z,6.90
2019-02-22T06:08:12.480Z,6.90
2019-02-22T06:10:41.435Z,6.90
2019-02-22T06:13:10.234Z,6.90
2019-02-22T06:15:39.009Z,6.90
2019-02-22T06:18:08.726Z,6.90
2019-02-22T06:20:37.469Z,6.90
2019-02-22T06:23:07.236Z,6.90
2019-02-22T06:25:36.033Z,6.90
2019-02-22T06:28:04.829Z,6.80
2019-02-22T06:30:33.680Z,6.80
2019-02-22T06:33:03.051Z,6.80
2019-02-22T06:35:31.847Z,6.80
2019-02-22T06:38:04.469Z,6.80
2019-02-22T06:40:33.906Z,6.80
2019-02-22T06:43:19.145Z,6.80
2019-02-22T06:45:46.030Z,6.80
2019-02-22T06:48:14.849Z,6.80
2019-02-22T06:50:43.581Z,6.80
2019-02-22T06:53:12.345Z,6.80
2019-02-22T06:55:41.093Z,6.90
2019-02-22T06:58:11.717Z,6.90
2019-02-22T07:00:40.297Z,6.90
2019-02-22T07:03:09.030Z,6.80
2019-02-22T07:05:37.893Z,6.90
2019-02-22T07:08:06.625Z,6.90
2019-02-22T07:10:37.033Z,6.80
2019-02-22T07:13:07.409Z,6.80
2019-02-22T07:15:36.245Z,6.90
2019-02-22T07:18:04.982Z,6.90
2019-02-22T07:20:33.762Z,6.90
2019-02-22T07:23:02.501Z,7.00
2019-02-22T07:25:31.269Z,6.90
2019-02-22T07:28:00.019Z,6.80
2019-02-22T07:30:28.787Z,6.90
2019-02-22T07:32:57.670Z,6.90
2019-02-22T07:35:26.630Z,6.90
2019-02-22T07:37:55.417Z,6.90
2019-02-22T07:40:24.157Z,6.80
2019-02-22T07:42:52.921Z,6.90
2019-02-22T07:45:21.746Z,6.90
2019-02-22T07:47:50.567Z,6.90
2019-02-22T07:50:19.302Z,7.00
2019-02-22T07:52:48.147Z,7.00
2019-02-22T07:55:18.110Z,7.00
2019-02-22T07:57:47.078Z,7.00
2019-02-22T08:00:16.245Z,7.00
2019-02-22T08:02:46.157Z,7.00
2019-02-22T08:05:14.908Z,7.10
2019-02-22T08:07:43.669Z,7.00
2019-02-22T08:10:12.490Z,6.90
2019-02-22T08:12:41.256Z,7.00
2019-02-22T08:15:10.697Z,6.90
2019-02-22T08:17:39.475Z,7.00
2019-02-22T08:20:09.426Z,7.00
2019-02-22T08:22:38.172Z,7.00
2019-02-22T08:25:07.732Z,7.10
2019-02-22T08:27:36.477Z,7.10
2019-02-22T08:30:07.641Z,7.00
2019-02-22T08:32:36.382Z,7.00
2019-02-22T08:35:06.154Z,7.10
2019-02-22T08:37:35.061Z,7.00
2019-02-22T08:40:04.534Z,7.10
2019-02-22T08:42:33.266Z,7.10
2019-02-22T08:45:02.129Z,7.20
2019-02-22T08:47:30.883Z,7.10
2019-02-22T08:49:59.632Z,7.10
2019-02-22T08:52:28.433Z,7.20
2019-02-22T08:54:57.365Z,7.10
2019-02-22T08:57:26.105Z,7.20
2019-02-22T08:59:56.728Z,7.30
2019-02-22T09:02:25.453Z,7.30
2019-02-22T09:04:54.224Z,7.40
2019-02-22T09:07:23.038Z,7.40
2019-02-22T09:09:51.769Z,7.50
2019-02-22T09:12:20.613Z,7.60
2019-02-22T09:14:49.349Z,7.60
2019-02-22T09:17:19.492Z,7.60
2019-02-22T09:19:48.337Z,7.60
2019-02-22T09:22:22.793Z,7.60
2019-02-22T09:24:47.601Z,7.60
2019-02-22T09:27:16.413Z,7.70
2019-02-22T09:29:45.266Z,7.60
2019-02-22T09:32:14.205Z,7.60
2019-02-22T09:34:42.949Z,7.60
2019-02-22T09:37:11.846Z,7.60
2019-02-22T09:39:40.686Z,7.60
2019-02-22T09:42:09.429Z,7.60
2019-02-22T09:44:38.198Z,7.60
2019-02-22T09:47:06.989Z,7.60
2019-02-22T09:49:35.749Z,7.60
2019-02-22T09:52:04.633Z,7.70
2019-02-22T09:54:33.510Z,7.60
2019-02-22T09:57:02.370Z,7.60
2019-02-22T09:59:31.253Z,7.60
2019-02-22T10:02:00.057Z,7.70
2019-02-22T10:04:28.961Z,7.70
2019-02-22T10:06:57.809Z,7.80
2019-02-22T10:09:26.573Z,7.90
2019-02-22T10:11:55.309Z,7.90
2019-02-22T10:14:24.097Z,8.00
2019-02-22T10:16:52.941Z,8.00
2019-02-22T10:19:21.672Z,8.10
2019-02-22T10:21:50.466Z,8.10
2019-02-22T10:24:19.313Z,8.20
2019-02-22T10:26:48.093Z,8.20
2019-02-22T10:29:16.926Z,8.30
2019-02-22T10:31:45.698Z,8.30
2019-02-22T10:34:14.429Z,8.20
2019-02-22T10:36:45.386Z,8.30
2019-02-22T10:39:13.649Z,8.30
2019-02-22T10:41:42.501Z,8.30
2019-02-22T10:44:17.705Z,8.30
2019-02-22T10:46:41.712Z,8.30
2019-02-22T10:49:10.514Z,8.30
2019-02-22T10:51:39.351Z,8.30
2019-02-22T10:54:08.166Z,8.30
2019-02-22T10:56:39.181Z,8.30
2019-02-22T10:59:07.321Z,8.30
2019-02-22T11:01:36.188Z,8.40
2019-02-22T11:04:05.037Z,8.40
2019-02-22T11:06:33.805Z,8.50
2019-02-22T11:09:02.715Z,8.50
2019-02-22T11:11:31.473Z,8.50
2019-02-22T11:14:00.330Z,8.50
2019-02-22T11:16:29.217Z,8.60
2019-02-22T11:18:57.958Z,8.70
2019-02-22T11:21:26.862Z,8.80
2019-02-22T11:23:55.650Z,8.70
2019-02-22T11:26:24.382Z,8.80
2019-02-22T11:28:53.150Z,8.90
2019-02-22T11:31:21.910Z,8.90
2019-02-22T11:33:50.676Z,8.90
2019-02-22T11:36:19.409Z,8.80
2019-02-22T11:38:48.178Z,8.80
2019-02-22T11:41:16.987Z,8.80
2019-02-22T11:43:45.757Z,8.70
2019-02-22T11:46:14.563Z,8.70
2019-02-22T11:48:43.334Z,8.80
2019-02-22T11:51:12.078Z,8.90
2019-02-22T11:53:40.846Z,9.10
2019-02-22T11:56:09.781Z,9.20
2019-02-22T11:58:38.547Z,9.30
2019-02-22T12:01:08.288Z,9.30
2019-02-22T12:03:37.097Z,9.30
2019-02-22T12:06:05.889Z,9.30
2019-02-22T12:08:34.774Z,9.40
2019-02-22T12:11:03.544Z,9.50
2019-02-22T12:13:32.490Z,9.50
2019-02-22T12:16:01.464Z,9.70
2019-02-22T12:18:30.310Z,9.60
2019-02-22T12:20:59.274Z,9.60
2019-02-22T12:23:27.989Z,9.70
2019-02-22T12:25:56.849Z,9.80
2019-02-22T12:28:25.529Z,9.90
2019-02-22T12:30:54.322Z,9.70
2019-02-22T12:33:23.037Z,9.80
2019-02-22T12:35:51.882Z,9.90
2019-02-22T12:38:20.792Z,9.80
2019-02-22T12:40:49.712Z,10.00
2019-02-22T12:44:32.106Z,10.10
2019-02-22T12:47:00.818Z,10.10
2019-02-22T12:49:29.581Z,10.10
2019-02-22T12:51:58.334Z,10.00
2019-02-22T12:54:27.150Z,10.10
2019-02-22T12:56:58.016Z,10.00
2019-02-22T12:59:26.522Z,9.90
2019-02-22T13:01:55.258Z,9.90
2019-02-22T13:04:24.025Z,9.90
2019-02-22T13:06:53.043Z,9.90
2019-02-22T13:09:21.767Z,9.90
2019-02-22T13:11:50.497Z,9.80
2019-02-22T13:14:19.263Z,9.90
2019-02-22T13:16:48.183Z,9.90
2019-02-22T13:19:17.019Z,9.80
2019-02-22T13:21:45.801Z,9.80
2019-02-22T13:24:14.571Z,10.00
2019-02-22T13:26:43.391Z,10.10
2019-02-22T13:29:12.154Z,10.10
2019-02-22T13:31:40.897Z,10.20
2019-02-22T13:34:09.669Z,10.20
2019-02-22T13:36:38.481Z,10.10
2019-02-22T13:39:07.305Z,10.10
2019-02-22T13:41:36.073Z,10.00
2019-02-22T13:44:04.822Z,10.00
2019-02-22T13:46:33.582Z,9.90
2019-02-22T13:49:02.391Z,9.90
2019-02-22T13:51:33.858Z,10.00
2019-02-22T13:54:01.599Z,10.00
2019-02-22T13:56:30.506Z,10.10
2019-02-22T13:58:59.359Z,10.00
2019-02-22T14:01:28.198Z,10.00
2019-02-22T14:03:57.006Z,10.00
2019-02-22T14:06:25.897Z,10.00
2019-02-22T14:09:04.035Z,10.10
2019-02-22T14:11:41.369Z,10.00
2019-02-22T14:14:13.487Z,10.00
2019-02-22T14:16:42.378Z,10.10
2019-02-22T14:19:12.824Z,10.10
2019-02-22T14:21:41.831Z,10.30
2019-02-22T14:24:10.956Z,10.40
2019-02-22T14:26:39.776Z,10.40
2019-02-22T14:29:16.954Z,10.50
2019-02-22T14:31:45.902Z,10.40
2019-02-22T14:34:15.756Z,10.40
2019-02-22T14:36:44.617Z,10.30
2019-02-22T14:39:13.454Z,10.20
2019-02-22T14:41:42.186Z,10.10
2019-02-22T14:44:10.966Z,10.00
2019-02-22T14:46:45.345Z,10.00
2019-02-22T14:49:28.013Z,10.00
2019-02-22T14:51:57.110Z,9.90
2019-02-22T14:54:25.819Z,10.00
2019-02-22T14:56:54.555Z,9.90
2019-02-22T14:59:23.325Z,9.80
2019-02-22T15:01:52.062Z,9.80
2019-02-22T15:04:20.841Z,9.80
2019-02-22T15:06:49.677Z,9.80
2019-02-22T15:09:18.495Z,9.90
2019-02-22T15:11:47.338Z,10.00
2019-02-22T15:14:17.987Z,10.00
2019-02-22T15:17:04.012Z,10.00
2019-02-22T15:19:32.825Z,10.00
2019-02-22T15:22:01.670Z,10.00
2019-02-22T15:24:32.956Z,10.00
2019-02-22T15:27:00.882Z,10.00
2019-02-22T15:29:29.621Z,9.90
2019-02-22T15:31:58.393Z,9.90
2019-02-22T15:34:27.209Z,9.80
2019-02-22T15:36:56.067Z,9.80
2019-02-22T15:39:24.819Z,9.80
2019-02-22T15:41:53.622Z,9.80
2019-02-22T15:44:22.422Z,9.70
2019-02-22T15:46:51.218Z,9.60
2019-02-22T15:49:19.950Z,9.50
2019-02-22T15:51:48.692Z,9.50
2019-02-22T15:54:17.465Z,9.50
2019-02-22T15:56:46.297Z,9.40
2019-02-22T15:59:15.137Z,9.40
2019-02-22T16:01:54.541Z,9.30
2019-02-22T16:04:15.989Z,9.30
2019-02-22T16:06:44.801Z,9.30
2019-02-22T16:09:13.602Z,9.20
2019-02-22T16:11:42.325Z,9.10
2019-02-22T16:14:11.178Z,9.00
2019-02-22T16:16:43.908Z,9.00
2019-02-22T16:19:12.966Z,8.90
2019-02-22T16:21:41.761Z,8.90
2019-02-22T16:24:10.597Z,8.90
2019-02-22T16:26:39.404Z,8.80
2019-02-22T16:29:08.171Z,8.80
2019-02-22T16:31:37.085Z,8.80
2019-02-22T16:34:05.829Z,8.80
2019-02-22T16:36:34.594Z,8.60
2019-02-22T16:39:04.701Z,8.60
2019-02-22T16:41:33.531Z,8.60
2019-02-22T16:44:02.273Z,8.50
2019-02-22T16:46:35.085Z,8.40
2019-02-22T16:49:01.489Z,8.30
2019-02-22T16:51:30.262Z,8.30
2019-02-22T16:53:58.996Z,8.30
2019-02-22T16:56:27.771Z,8.30
2019-02-22T16:58:56.538Z,8.20
2019-02-22T17:01:25.369Z,8.20
2019-02-22T17:03:54.102Z,8.20
2019-02-22T17:06:22.881Z,8.10
2019-02-22T17:08:51.722Z,8.10
2019-02-22T17:11:20.466Z,8.10
2019-02-22T17:13:49.303Z,8.10
2019-02-22T17:16:18.041Z,8.10
2019-02-22T17:18:46.877Z,8.20
2019-02-22T17:21:15.630Z,8.10
2019-02-22T17:23:44.396Z,8.00
2019-02-22T17:26:14.433Z,8.00
2019-02-22T17:28:43.253Z,7.90
2019-02-22T17:31:12.017Z,7.90
2019-02-22T17:33:40.853Z,7.80
2019-02-22T17:36:09.657Z,7.80
2019-02-22T17:38:38.497Z,7.80
2019-02-22T17:41:07.233Z,7.70
2019-02-22T17:43:35.993Z,7.70
2019-02-22T17:46:04.725Z,7.60
2019-02-22T17:48:33.524Z,7.50
2019-02-22T17:51:02.365Z,7.30
2019-02-22T17:53:31.201Z,7.20
2019-02-22T17:55:59.973Z,7.10
2019-02-22T17:58:28.754Z,7.00
2019-02-22T18:00:57.741Z,6.90
2019-02-22T18:03:26.557Z,6.90
2019-02-22T18:05:55.397Z,6.80
2019-02-22T18:08:24.145Z,6.70
2019-02-22T18:10:52.918Z,6.60
2019-02-22T18:13:21.665Z,6.60
2019-02-22T18:15:50.588Z,6.50
2019-02-22T18:18:19.453Z,6.50
2019-02-22T18:20:48.354Z,6.30
2019-02-22T18:23:17.050Z,6.30
2019-02-22T18:25:45.889Z,6.20
2019-02-22T18:28:14.652Z,6.10
2019-02-22T18:30:43.474Z,6.00
2019-02-22T18:33:12.233Z,5.90
2019-02-22T18:35:40.961Z,5.90
2019-02-22T18:38:09.868Z,5.90
2019-02-22T18:40:38.676Z,5.80
2019-02-22T18:43:07.440Z,5.90
2019-02-22T18:45:36.270Z,6.00
2019-02-22T18:48:05.080Z,6.10
2019-02-22T18:50:33.817Z,6.10
2019-02-22T18:53:04.089Z,6.30
2019-02-22T18:55:33.016Z,6.30
2019-02-22T18:58:03.360Z,6.40
2019-02-22T19:00:32.156Z,6.40
2019-02-22T19:03:00.899Z,6.40
2019-02-22T19:05:29.674Z,6.40
2019-02-22T19:07:58.410Z,6.30
2019-02-22T19:10:27.181Z,6.40
2019-02-22T19:12:55.933Z,6.50
2019-02-22T19:15:24.693Z,6.60
2019-02-22T19:17:53.482Z,6.60
2019-02-22T19:20:22.249Z,6.70
2019-02-22T19:22:50.994Z,6.70
2019-02-22T19:25:19.757Z,6.80
2019-02-22T19:27:48.518Z,6.80
2019-02-22T19:30:23.214Z,6.80
2019-02-22T19:32:52.904Z,6.90
2019-02-22T19:35:21.761Z,6.80
2019-02-22T19:37:52.512Z,6.90
2019-02-22T19:40:23.202Z,6.90
2019-02-22T19:42:52.037Z,7.00
2019-02-22T19:45:20.766Z,7.00
2019-02-22T19:47:49.643Z,7.10
2019-02-22T19:50:18.369Z,7.10
2019-02-22T19:52:47.209Z,7.10
2019-02-22T19:55:19.805Z,7.00
2019-02-22T19:57:48.633Z,7.00
2019-02-22T20:00:18.257Z,7.00
2019-02-22T20:02:47.126Z,7.10
2019-02-22T20:05:16.212Z,7.10
2019-02-22T20:07:45.031Z,7.10
2019-02-22T20:10:18.357Z,7.10
2019-02-22T20:12:47.171Z,7.10
2019-02-22T20:15:17.061Z,7.20
2019-02-22T20:17:53.711Z,7.10
2019-02-22T20:20:17.730Z,7.10
2019-02-22T20:22:46.606Z,7.00
2019-02-22T20:25:15.470Z,7.00
2019-02-22T20:27:45.662Z,7.00
2019-02-22T20:30:18.480Z,6.90
2019-02-22T20:32:47.250Z,6.90
2019-02-22T20:35:27.300Z,6.90
2019-02-22T20:37:56.088Z,6.90
2019-02-22T20:40:24.865Z,6.80
2019-02-22T20:42:53.708Z,6.90
2019-02-22T20:45:22.421Z,6.90
2019-02-22T20:47:51.161Z,6.90
2019-02-22T20:50:19.997Z,6.90
2019-02-22T20:52:48.778Z,6.80
2019-02-22T20:55:17.552Z,6.70
2019-02-22T20:57:46.275Z,6.70
2019-02-22T21:00:23.094Z,6.70
2019-02-22T21:02:51.895Z,6.70
2019-02-22T21:05:20.676Z,6.70
2019-02-22T21:07:49.569Z,6.70
2019-02-22T21:10:22.760Z,6.70
2019-02-22T21:12:51.457Z,6.70
2019-02-22T21:15:20.293Z,6.70
2019-02-22T21:17:49.145Z,6.60
2019-02-22T21:20:22.057Z,6.60
2019-02-22T21:22:50.793Z,6.60
2019-02-22T21:25:19.640Z,6.60
2019-02-22T21:27:48.437Z,6.60
2019-02-22T21:30:21.237Z,6.60
2019-02-22T21:32:49.978Z,6.50
2019-02-22T21:35:18.822Z,6.60
2019-02-22T21:37:47.592Z,6.50
2019-02-22T21:40:16.317Z,6.50
2019-02-22T21:42:45.245Z,6.50
2019-02-22T21:45:16.076Z,6.40
2019-02-22T21:47:54.320Z,6.40
2019-02-22T21:50:16.229Z,6.40
2019-02-22T21:52:45.014Z,6.40
2019-02-22T21:55:14.755Z,6.30
2019-02-22T21:57:43.740Z,6.20
2019-02-22T22:00:20.576Z,6.20
2019-02-22T22:02:49.346Z,6.20
2019-02-22T22:05:18.271Z,6.20
2019-02-22T22:07:47.021Z,6.20
2019-02-22T22:10:15.795Z,6.10
2019-02-22T22:12:44.629Z,6.00
2019-02-22T22:15:14.869Z,6.00
2019-02-22T22:17:43.608Z,5.90
2019-02-22T22:20:12.457Z,5.90
2019-02-22T22:22:41.190Z,5.80
2019-02-22T22:25:16.749Z,5.70
2019-02-22T22:27:45.482Z,5.60
2019-02-22T22:30:15.157Z,5.50
2019-02-22T22:32:44.045Z,5.40
2019-02-22T22:35:14.385Z,5.30
2019-02-22T22:37:43.184Z,5.20
2019-02-22T22:40:32.746Z,5.10
2019-02-22T22:43:01.481Z,5.10
2019-02-22T22:45:30.290Z,5.00
2019-02-22T22:47:58.986Z,5.00
2019-02-22T22:50:27.750Z,4.90
2019-02-22T22:52:56.481Z,4.80
2019-02-22T22:55:25.221Z,4.80
2019-02-22T22:57:54.051Z,4.70
2019-02-22T23:00:51.507Z,4.70
2019-02-22T23:03:21.310Z,4.70
2019-02-22T23:05:50.044Z,4.70
2019-02-22T23:08:18.889Z,4.60
2019-02-22T23:10:47.730Z,4.60
2019-02-22T23:13:16.871Z,4.50
2019-02-22T23:15:45.605Z,4.40
2019-02-22T23:18:14.453Z,4.40
2019-02-22T23:20:43.190Z,4.40
2019-02-22T23:23:11.953Z,4.40
2019-02-22T23:25:40.688Z,4.40
2019-02-22T23:28:09.466Z,4.20
2019-02-22T23:30:38.271Z,4.20
2019-02-22T23:33:07.044Z,4.20
2019-02-22T23:35:35.842Z,4.10
2019-02-22T23:38:04.837Z,4.10
2019-02-22T23:40:33.565Z,4.10
2019-02-22T23:43:02.301Z,4.00
2019-02-22T23:45:31.109Z,4.00
2019-02-22T23:47:59.850Z,3.90
2019-02-22T23:50:28.629Z,3.90
2019-02-22T23:52:57.445Z,3.90
2019-02-22T23:55:26.223Z,3.80
2019-02-22T23:57:55.001Z,3.70
